Terminal Aerodrome Forecast
Issued by NWS

Home | Current Version | Previous Version | Text Only | Print | Product List | Glossary On
Versions: 1 2 3 4 5 6 7 8 9 10 11 12 13 14 15 16 17 18 19 20 21 22 23
000
FTUS44 KLZK 060531
TAFLIT
TAF
KLIT 060531Z 0606/0706 VRB05KT P6SM -RA VCTS BKN008 OVC012CB
      TEMPO 0606/0610 1SM SHRA BR OVC005
     FM061000 32007KT 2SM BR VCSH OVC008
     FM061200 32007KT 4SM -DZ BR OVC007
     FM061800 35010KT P6SM SCT015 OVC100=

USA.gov is the U.S. government's official web portal to all federal, state and local government web resources and services.